sensor_id;sensor_type;location;lat;lon;timestamp;P1;durP1;ratioP1;P2;durP2;ratioP2
8893;SDS011;4483;48.622;9.230;2023-02-22T00:01:09;3.80;;;3.00;;
8893;SDS011;4483;48.622;9.230;2023-02-22T00:03:47;3.60;;;2.80;;
8893;SDS011;4483;48.622;9.230;2023-02-22T00:06:16;5.50;;;3.00;;
8893;SDS011;4483;48.622;9.230;2023-02-22T00:08:45;3.57;;;2.90;;
8893;SDS011;4483;48.622;9.230;2023-02-22T00:11:13;5.37;;;2.80;;
8893;SDS011;4483;48.622;9.230;2023-02-22T00:13:40;4.27;;;2.87;;
8893;SDS011;4483;48.622;9.230;2023-02-22T00:16:11;3.13;;;2.80;;
8893;SDS011;4483;48.622;9.230;2023-02-22T00:18:39;4.90;;;3.23;;
8893;SDS011;4483;48.622;9.230;2023-02-22T00:21:06;5.33;;;2.93;;
8893;SDS011;4483;48.622;9.230;2023-02-22T00:23:34;6.80;;;3.10;;
8893;SDS011;4483;48.622;9.230;2023-02-22T00:26:04;5.43;;;3.20;;
8893;SDS011;4483;48.622;9.230;2023-02-22T00:28:34;3.37;;;2.97;;
8893;SDS011;4483;48.622;9.230;2023-02-22T00:31:01;2.93;;;2.73;;
8893;SDS011;4483;48.622;9.230;2023-02-22T00:33:30;4.17;;;3.17;;
8893;SDS011;4483;48.622;9.230;2023-02-22T00:35:58;3.83;;;3.00;;
8893;SDS011;4483;48.622;9.230;2023-02-22T00:38:24;2.67;;;2.47;;
8893;SDS011;4483;48.622;9.230;2023-02-22T00:40:51;4.60;;;2.90;;
8893;SDS011;4483;48.622;9.230;2023-02-22T00:43:18;3.87;;;2.87;;
8893;SDS011;4483;48.622;9.230;2023-02-22T00:45:44;4.90;;;3.00;;
8893;SDS011;4483;48.622;9.230;2023-02-22T00:48:11;4.23;;;2.97;;
8893;SDS011;4483;48.622;9.230;2023-02-22T00:50:39;5.80;;;3.30;;
8893;SDS011;4483;48.622;9.230;2023-02-22T00:53:06;4.93;;;2.93;;
8893;SDS011;4483;48.622;9.230;2023-02-22T00:55:33;3.57;;;2.60;;
8893;SDS011;4483;48.622;9.230;2023-02-22T00:58:02;3.10;;;2.73;;
8893;SDS011;4483;48.622;9.230;2023-02-22T01:00:30;3.40;;;3.10;;
8893;SDS011;4483;48.622;9.230;2023-02-22T01:02:59;5.17;;;3.20;;
8893;SDS011;4483;48.622;9.230;2023-02-22T01:05:26;3.77;;;2.87;;
8893;SDS011;4483;48.622;9.230;2023-02-22T01:07:56;3.53;;;3.20;;
8893;SDS011;4483;48.622;9.230;2023-02-22T01:10:25;3.43;;;2.80;;
8893;SDS011;4483;48.622;9.230;2023-02-22T01:12:52;6.97;;;3.23;;
8893;SDS011;4483;48.622;9.230;2023-02-22T01:15:24;3.50;;;2.80;;
8893;SDS011;4483;48.622;9.230;2023-02-22T01:17:53;4.10;;;2.90;;
8893;SDS011;4483;48.622;9.230;2023-02-22T01:20:20;5.87;;;2.90;;
8893;SDS011;4483;48.622;9.230;2023-02-22T01:22:48;6.57;;;3.00;;
8893;SDS011;4483;48.622;9.230;2023-02-22T01:25:19;2.80;;;2.60;;
8893;SDS011;4483;48.622;9.230;2023-02-22T01:27:47;5.00;;;2.63;;
8893;SDS011;4483;48.622;9.230;2023-02-22T01:30:15;4.73;;;2.60;;
8893;SDS011;4483;48.622;9.230;2023-02-22T01:32:45;3.23;;;2.93;;
8893;SDS011;4483;48.622;9.230;2023-02-22T01:35:12;4.70;;;2.90;;
8893;SDS011;4483;48.622;9.230;2023-02-22T01:37:42;4.87;;;3.00;;
8893;SDS011;4483;48.622;9.230;2023-02-22T01:40:13;3.80;;;2.80;;
8893;SDS011;4483;48.622;9.230;2023-02-22T01:42:45;3.80;;;2.73;;
8893;SDS011;4483;48.622;9.230;2023-02-22T01:48:16;3.73;;;2.83;;
8893;SDS011;4483;48.622;9.230;2023-02-22T01:50:47;4.17;;;2.83;;
8893;SDS011;4483;48.622;9.230;2023-02-22T01:53:18;2.93;;;2.47;;
8893;SDS011;4483;48.622;9.230;2023-02-22T01:55:48;3.20;;;3.00;;
8893;SDS011;4483;48.622;9.230;2023-02-22T01:58:17;3.57;;;3.03;;
8893;SDS011;4483;48.622;9.230;2023-02-22T02:00:46;5.47;;;3.27;;
8893;SDS011;4483;48.622;9.230;2023-02-22T02:03:13;4.97;;;2.90;;
8893;SDS011;4483;48.622;9.230;2023-02-22T02:05:43;6.27;;;2.87;;
8893;SDS011;4483;48.622;9.230;2023-02-22T02:08:16;4.47;;;3.13;;
8893;SDS011;4483;48.622;9.230;2023-02-22T02:10:54;7.60;;;2.73;;
8893;SDS011;4483;48.622;9.230;2023-02-22T02:13:24;5.43;;;3.07;;
8893;SDS011;4483;48.622;9.230;2023-02-22T02:15:52;6.63;;;3.30;;
8893;SDS011;4483;48.622;9.230;2023-02-22T02:18:19;3.23;;;2.93;;
8893;SDS011;4483;48.622;9.230;2023-02-22T02:20:50;6.30;;;3.50;;
8893;SDS011;4483;48.622;9.230;2023-02-22T02:29:50;5.77;;;3.10;;
8893;SDS011;4483;48.622;9.230;2023-02-22T02:32:45;3.93;;;3.20;;
8893;SDS011;4483;48.622;9.230;2023-02-22T02:35:18;3.73;;;3.23;;
8893;SDS011;4483;48.622;9.230;2023-02-22T02:37:54;4.10;;;3.10;;
8893;SDS011;4483;48.622;9.230;2023-02-22T02:40:29;6.37;;;3.07;;
8893;SDS011;4483;48.622;9.230;2023-02-22T02:43:03;4.30;;;3.17;;
8893;SDS011;4483;48.622;9.230;2023-02-22T02:45:38;5.70;;;3.30;;
8893;SDS011;4483;48.622;9.230;2023-02-22T02:48:10;3.33;;;3.00;;
8893;SDS011;4483;48.622;9.230;2023-02-22T02:50:41;4.67;;;3.20;;
8893;SDS011;4483;48.622;9.230;2023-02-22T02:53:11;5.57;;;2.80;;
8893;SDS011;4483;48.622;9.230;2023-02-22T02:55:41;3.93;;;3.17;;
8893;SDS011;4483;48.622;9.230;2023-02-22T02:58:10;3.40;;;2.93;;
8893;SDS011;4483;48.622;9.230;2023-02-22T03:00:43;4.17;;;2.90;;
8893;SDS011;4483;48.622;9.230;2023-02-22T03:03:27;3.87;;;2.90;;
8893;SDS011;4483;48.622;9.230;2023-02-22T03:06:20;5.63;;;3.37;;
8893;SDS011;4483;48.622;9.230;2023-02-22T03:09:04;3.60;;;3.07;;
8893;SDS011;4483;48.622;9.230;2023-02-22T03:11:39;5.47;;;3.00;;
8893;SDS011;4483;48.622;9.230;2023-02-22T03:14:15;5.30;;;2.83;;
8893;SDS011;4483;48.622;9.230;2023-02-22T03:16:48;3.70;;;2.80;;
8893;SDS011;4483;48.622;9.230;2023-02-22T03:19:20;5.43;;;3.27;;
8893;SDS011;4483;48.622;9.230;2023-02-22T03:21:53;7.37;;;3.20;;
8893;SDS011;4483;48.622;9.230;2023-02-22T03:24:24;7.93;;;3.10;;
8893;SDS011;4483;48.622;9.230;2023-02-22T03:26:57;5.27;;;2.87;;
8893;SDS011;4483;48.622;9.230;2023-02-22T03:29:33;7.27;;;3.27;;
8893;SDS011;4483;48.622;9.230;2023-02-22T03:32:04;3.90;;;2.67;;
8893;SDS011;4483;48.622;9.230;2023-02-22T03:34:37;6.47;;;2.90;;
8893;SDS011;4483;48.622;9.230;2023-02-22T03:37:09;3.43;;;2.93;;
8893;SDS011;4483;48.622;9.230;2023-02-22T03:39:41;3.90;;;2.83;;
8893;SDS011;4483;48.622;9.230;2023-02-22T03:42:11;7.10;;;3.07;;
8893;SDS011;4483;48.622;9.230;2023-02-22T03:44:42;4.03;;;3.00;;
8893;SDS011;4483;48.622;9.230;2023-02-22T03:47:15;3.83;;;2.60;;
8893;SDS011;4483;48.622;9.230;2023-02-22T03:49:50;9.83;;;2.90;;
8893;SDS011;4483;48.622;9.230;2023-02-22T03:52:19;3.33;;;3.03;;
8893;SDS011;4483;48.622;9.230;2023-02-22T03:54:47;5.13;;;3.00;;
8893;SDS011;4483;48.622;9.230;2023-02-22T03:57:19;5.50;;;2.97;;
8893;SDS011;4483;48.622;9.230;2023-02-22T03:59:50;4.27;;;3.33;;
8893;SDS011;4483;48.622;9.230;2023-02-22T04:02:17;4.53;;;2.90;;
8893;SDS011;4483;48.622;9.230;2023-02-22T04:04:44;6.87;;;3.00;;
8893;SDS011;4483;48.622;9.230;2023-02-22T04:07:12;7.50;;;3.43;;
8893;SDS011;4483;48.622;9.230;2023-02-22T04:09:40;5.43;;;3.20;;
8893;SDS011;4483;48.622;9.230;2023-02-22T04:12:07;6.77;;;3.27;;
8893;SDS011;4483;48.622;9.230;2023-02-22T04:14:33;3.93;;;3.23;;
8893;SDS011;4483;48.622;9.230;2023-02-22T04:17:00;2.97;;;2.70;;
8893;SDS011;4483;48.622;9.230;2023-02-22T04:19:27;4.73;;;2.90;;
8893;SDS011;4483;48.622;9.230;2023-02-22T04:21:54;2.80;;;2.60;;
8893;SDS011;4483;48.622;9.230;2023-02-22T04:24:22;6.57;;;3.40;;
8893;SDS011;4483;48.622;9.230;2023-02-22T04:26:48;3.87;;;3.10;;
8893;SDS011;4483;48.622;9.230;2023-02-22T04:29:15;7.60;;;3.30;;
8893;SDS011;4483;48.622;9.230;2023-02-22T04:31:42;8.23;;;3.00;;
8893;SDS011;4483;48.622;9.230;2023-02-22T04:34:08;10.10;;;2.93;;
8893;SDS011;4483;48.622;9.230;2023-02-22T04:36:35;3.40;;;2.93;;
8893;SDS011;4483;48.622;9.230;2023-02-22T04:39:02;3.27;;;2.90;;
8893;SDS011;4483;48.622;9.230;2023-02-22T04:41:30;4.73;;;2.70;;
8893;SDS011;4483;48.622;9.230;2023-02-22T04:43:58;5.77;;;3.43;;
8893;SDS011;4483;48.622;9.230;2023-02-22T04:46:25;5.20;;;3.20;;
8893;SDS011;4483;48.622;9.230;2023-02-22T04:48:51;3.90;;;3.07;;
8893;SDS011;4483;48.622;9.230;2023-02-22T04:51:18;4.23;;;3.13;;
8893;SDS011;4483;48.622;9.230;2023-02-22T04:53:45;4.40;;;3.00;;
8893;SDS011;4483;48.622;9.230;2023-02-22T04:56:11;3.90;;;3.27;;
8893;SDS011;4483;48.622;9.230;2023-02-22T04:58:39;6.33;;;3.27;;
8893;SDS011;4483;48.622;9.230;2023-02-22T05:01:06;5.73;;;3.53;;
8893;SDS011;4483;48.622;9.230;2023-02-22T05:03:33;5.87;;;3.63;;
8893;SDS011;4483;48.622;9.230;2023-02-22T05:06:02;5.83;;;3.13;;
8893;SDS011;4483;48.622;9.230;2023-02-22T05:08:29;4.97;;;3.43;;
8893;SDS011;4483;48.622;9.230;2023-02-22T05:10:55;4.43;;;2.90;;
8893;SDS011;4483;48.622;9.230;2023-02-22T05:13:22;6.80;;;3.03;;
8893;SDS011;4483;48.622;9.230;2023-02-22T05:15:50;6.30;;;3.50;;
8893;SDS011;4483;48.622;9.230;2023-02-22T05:18:18;6.30;;;3.27;;
8893;SDS011;4483;48.622;9.230;2023-02-22T05:20:45;4.10;;;3.33;;
8893;SDS011;4483;48.622;9.230;2023-02-22T05:23:11;5.73;;;3.90;;
8893;SDS011;4483;48.622;9.230;2023-02-22T05:25:38;7.03;;;4.07;;
8893;SDS011;4483;48.622;9.230;2023-02-22T05:28:07;5.93;;;3.27;;
8893;SDS011;4483;48.622;9.230;2023-02-22T05:30:36;6.67;;;4.20;;
8893;SDS011;4483;48.622;9.230;2023-02-22T05:33:06;4.97;;;3.50;;
8893;SDS011;4483;48.622;9.230;2023-02-22T05:35:33;4.30;;;3.20;;
8893;SDS011;4483;48.622;9.230;2023-02-22T05:38:01;5.77;;;3.80;;
8893;SDS011;4483;48.622;9.230;2023-02-22T05:40:28;5.67;;;3.37;;
8893;SDS011;4483;48.622;9.230;2023-02-22T05:42:55;4.23;;;3.50;;
8893;SDS011;4483;48.622;9.230;2023-02-22T05:45:25;4.50;;;3.30;;
8893;SDS011;4483;48.622;9.230;2023-02-22T05:47:53;4.23;;;3.43;;
8893;SDS011;4483;48.622;9.230;2023-02-22T05:50:21;3.70;;;2.90;;
8893;SDS011;4483;48.622;9.230;2023-02-22T05:52:49;3.60;;;2.97;;
8893;SDS011;4483;48.622;9.230;2023-02-22T05:55:17;4.93;;;3.30;;
8893;SDS011;4483;48.622;9.230;2023-02-22T05:57:45;5.27;;;3.10;;
8893;SDS011;4483;48.622;9.230;2023-02-22T06:00:15;5.13;;;3.70;;
8893;SDS011;4483;48.622;9.230;2023-02-22T06:02:43;4.77;;;3.37;;
8893;SDS011;4483;48.622;9.230;2023-02-22T06:05:10;4.07;;;2.87;;
8893;SDS011;4483;48.622;9.230;2023-02-22T06:07:39;7.50;;;3.10;;
8893;SDS011;4483;48.622;9.230;2023-02-22T06:10:05;4.83;;;3.37;;
8893;SDS011;4483;48.622;9.230;2023-02-22T06:12:32;5.03;;;3.17;;
8893;SDS011;4483;48.622;9.230;2023-02-22T06:14:59;5.33;;;3.40;;
8893;SDS011;4483;48.622;9.230;2023-02-22T06:17:25;8.90;;;4.00;;
8893;SDS011;4483;48.622;9.230;2023-02-22T06:19:54;4.03;;;3.27;;
8893;SDS011;4483;48.622;9.230;2023-02-22T06:22:21;9.20;;;3.40;;
8893;SDS011;4483;48.622;9.230;2023-02-22T06:24:49;5.37;;;3.67;;
8893;SDS011;4483;48.622;9.230;2023-02-22T06:27:15;8.93;;;3.53;;
8893;SDS011;4483;48.622;9.230;2023-02-22T06:29:43;4.67;;;3.20;;
8893;SDS011;4483;48.622;9.230;2023-02-22T06:32:11;4.43;;;3.50;;
8893;SDS011;4483;48.622;9.230;2023-02-22T06:34:37;7.17;;;3.40;;
8893;SDS011;4483;48.622;9.230;2023-02-22T06:37:05;3.23;;;2.90;;
8893;SDS011;4483;48.622;9.230;2023-02-22T06:39:33;6.27;;;3.43;;
8893;SDS011;4483;48.622;9.230;2023-02-22T06:42:01;6.10;;;4.00;;
8893;SDS011;4483;48.622;9.230;2023-02-22T06:44:27;5.23;;;3.27;;
8893;SDS011;4483;48.622;9.230;2023-02-22T06:46:54;4.83;;;3.40;;
8893;SDS011;4483;48.622;9.230;2023-02-22T06:49:21;4.40;;;3.27;;
8893;SDS011;4483;48.622;9.230;2023-02-22T06:51:47;4.63;;;3.67;;
8893;SDS011;4483;48.622;9.230;2023-02-22T06:54:14;3.27;;;2.97;;
8893;SDS011;4483;48.622;9.230;2023-02-22T06:56:40;4.17;;;3.20;;
8893;SDS011;4483;48.622;9.230;2023-02-22T06:59:08;6.57;;;3.70;;
8893;SDS011;4483;48.622;9.230;2023-02-22T07:01:35;5.47;;;4.47;;
8893;SDS011;4483;48.622;9.230;2023-02-22T07:04:05;8.37;;;4.40;;
8893;SDS011;4483;48.622;9.230;2023-02-22T07:06:31;5.93;;;3.80;;
8893;SDS011;4483;48.622;9.230;2023-02-22T07:08:58;6.13;;;4.00;;
8893;SDS011;4483;48.622;9.230;2023-02-22T07:11:25;8.97;;;5.10;;
8893;SDS011;4483;48.622;9.230;2023-02-22T07:13:52;8.63;;;4.07;;
8893;SDS011;4483;48.622;9.230;2023-02-22T07:16:20;8.97;;;4.80;;
8893;SDS011;4483;48.622;9.230;2023-02-22T07:18:47;10.23;;;4.97;;
8893;SDS011;4483;48.622;9.230;2023-02-22T07:21:14;8.93;;;5.17;;
8893;SDS011;4483;48.622;9.230;2023-02-22T07:23:40;5.40;;;4.43;;
8893;SDS011;4483;48.622;9.230;2023-02-22T07:26:07;7.83;;;4.47;;
8893;SDS011;4483;48.622;9.230;2023-02-22T07:28:33;5.80;;;4.43;;
8893;SDS011;4483;48.622;9.230;2023-02-22T07:31:00;7.63;;;4.57;;
8893;SDS011;4483;48.622;9.230;2023-02-22T07:33:28;8.47;;;4.97;;
8893;SDS011;4483;48.622;9.230;2023-02-22T07:35:55;6.83;;;5.07;;
8893;SDS011;4483;48.622;9.230;2023-02-22T07:38:21;7.23;;;4.97;;
8893;SDS011;4483;48.622;9.230;2023-02-22T07:40:48;6.37;;;4.77;;
8893;SDS011;4483;48.622;9.230;2023-02-22T07:43:15;8.37;;;5.77;;
8893;SDS011;4483;48.622;9.230;2023-02-22T07:45:43;9.57;;;5.73;;
8893;SDS011;4483;48.622;9.230;2023-02-22T07:48:11;9.80;;;5.77;;
8893;SDS011;4483;48.622;9.230;2023-02-22T07:50:39;8.70;;;6.30;;
8893;SDS011;4483;48.622;9.230;2023-02-22T07:53:07;8.70;;;5.90;;
8893;SDS011;4483;48.622;9.230;2023-02-22T07:55:37;8.27;;;6.07;;
8893;SDS011;4483;48.622;9.230;2023-02-22T07:58:05;10.20;;;6.10;;
8893;SDS011;4483;48.622;9.230;2023-02-22T08:00:34;7.57;;;5.70;;
8893;SDS011;4483;48.622;9.230;2023-02-22T08:03:02;14.27;;;6.23;;
8893;SDS011;4483;48.622;9.230;2023-02-22T08:05:30;10.53;;;5.40;;
8893;SDS011;4483;48.622;9.230;2023-02-22T08:08:00;8.00;;;5.43;;
8893;SDS011;4483;48.622;9.230;2023-02-22T08:10:27;9.07;;;5.70;;
8893;SDS011;4483;48.622;9.230;2023-02-22T08:12:55;8.40;;;5.40;;
8893;SDS011;4483;48.622;9.230;2023-02-22T08:15:22;7.97;;;4.90;;
8893;SDS011;4483;48.622;9.230;2023-02-22T08:17:50;9.03;;;5.07;;
8893;SDS011;4483;48.622;9.230;2023-02-22T08:20:18;6.67;;;4.73;;
8893;SDS011;4483;48.622;9.230;2023-02-22T08:22:45;7.77;;;5.17;;
8893;SDS011;4483;48.622;9.230;2023-02-22T08:25:14;7.70;;;4.80;;
8893;SDS011;4483;48.622;9.230;2023-02-22T08:27:42;11.00;;;5.80;;
8893;SDS011;4483;48.622;9.230;2023-02-22T08:30:10;9.90;;;6.20;;
8893;SDS011;4483;48.622;9.230;2023-02-22T08:32:40;7.53;;;5.03;;
8893;SDS011;4483;48.622;9.230;2023-02-22T08:35:07;7.73;;;5.17;;
8893;SDS011;4483;48.622;9.230;2023-02-22T08:37:34;6.87;;;4.60;;
8893;SDS011;4483;48.622;9.230;2023-02-22T08:40:01;5.70;;;4.43;;
8893;SDS011;4483;48.622;9.230;2023-02-22T08:42:29;6.00;;;4.90;;
8893;SDS011;4483;48.622;9.230;2023-02-22T08:44:55;7.77;;;5.40;;
8893;SDS011;4483;48.622;9.230;2023-02-22T08:47:22;13.17;;;5.10;;
8893;SDS011;4483;48.622;9.230;2023-02-22T08:49:49;10.83;;;4.83;;
8893;SDS011;4483;48.622;9.230;2023-02-22T08:52:15;7.60;;;5.00;;
8893;SDS011;4483;48.622;9.230;2023-02-22T08:54:44;9.23;;;4.90;;
8893;SDS011;4483;48.622;9.230;2023-02-22T08:57:11;6.40;;;4.30;;
8893;SDS011;4483;48.622;9.230;2023-02-22T08:59:39;5.53;;;4.80;;
8893;SDS011;4483;48.622;9.230;2023-02-22T09:02:09;5.97;;;4.73;;
8893;SDS011;4483;48.622;9.230;2023-02-22T09:04:39;6.47;;;5.17;;
8893;SDS011;4483;48.622;9.230;2023-02-22T09:07:06;8.80;;;4.60;;
8893;SDS011;4483;48.622;9.230;2023-02-22T09:09:33;7.13;;;4.87;;
8893;SDS011;4483;48.622;9.230;2023-02-22T09:12:00;6.50;;;4.70;;
8893;SDS011;4483;48.622;9.230;2023-02-22T09:14:27;8.37;;;5.60;;
8893;SDS011;4483;48.622;9.230;2023-02-22T09:16:55;5.67;;;5.10;;
8893;SDS011;4483;48.622;9.230;2023-02-22T09:19:21;4.93;;;4.20;;
8893;SDS011;4483;48.622;9.230;2023-02-22T09:21:51;6.20;;;5.60;;
8893;SDS011;4483;48.622;9.230;2023-02-22T09:24:18;11.73;;;8.77;;
8893;SDS011;4483;48.622;9.230;2023-02-22T09:26:45;13.00;;;5.57;;
8893;SDS011;4483;48.622;9.230;2023-02-22T09:29:16;14.50;;;6.47;;
8893;SDS011;4483;48.622;9.230;2023-02-22T09:31:47;10.00;;;5.50;;
8893;SDS011;4483;48.622;9.230;2023-02-22T09:34:17;9.87;;;4.90;;
8893;SDS011;4483;48.622;9.230;2023-02-22T09:36:44;6.57;;;5.00;;
8893;SDS011;4483;48.622;9.230;2023-02-22T09:39:12;8.13;;;4.80;;
8893;SDS011;4483;48.622;9.230;2023-02-22T09:41:42;6.13;;;5.00;;
8893;SDS011;4483;48.622;9.230;2023-02-22T09:44:19;9.43;;;4.70;;
8893;SDS011;4483;48.622;9.230;2023-02-22T09:46:50;15.97;;;5.90;;
8893;SDS011;4483;48.622;9.230;2023-02-22T09:49:22;8.23;;;4.87;;
8893;SDS011;4483;48.622;9.230;2023-02-22T09:51:54;8.77;;;5.13;;
8893;SDS011;4483;48.622;9.230;2023-02-22T09:54:27;6.43;;;4.73;;
8893;SDS011;4483;48.622;9.230;2023-02-22T09:56:59;9.37;;;4.80;;
8893;SDS011;4483;48.622;9.230;2023-02-22T09:59:30;8.53;;;4.83;;
8893;SDS011;4483;48.622;9.230;2023-02-22T10:02:04;5.50;;;4.60;;
8893;SDS011;4483;48.622;9.230;2023-02-22T10:04:45;8.80;;;5.20;;
8893;SDS011;4483;48.622;9.230;2023-02-22T10:07:15;7.47;;;4.40;;
8893;SDS011;4483;48.622;9.230;2023-02-22T10:09:46;4.97;;;4.23;;
8893;SDS011;4483;48.622;9.230;2023-02-22T10:12:17;6.37;;;4.97;;
8893;SDS011;4483;48.622;9.230;2023-02-22T10:17:48;6.93;;;4.97;;
8893;SDS011;4483;48.622;9.230;2023-02-22T10:20:29;6.20;;;4.50;;
8893;SDS011;4483;48.622;9.230;2023-02-22T10:23:10;6.37;;;4.53;;
8893;SDS011;4483;48.622;9.230;2023-02-22T10:25:42;6.00;;;4.90;;
8893;SDS011;4483;48.622;9.230;2023-02-22T10:28:15;8.37;;;5.13;;
8893;SDS011;4483;48.622;9.230;2023-02-22T10:30:46;5.73;;;5.07;;
8893;SDS011;4483;48.622;9.230;2023-02-22T10:33:19;9.27;;;4.90;;
8893;SDS011;4483;48.622;9.230;2023-02-22T10:35:50;6.30;;;4.50;;
8893;SDS011;4483;48.622;9.230;2023-02-22T10:38:18;5.07;;;4.23;;
8893;SDS011;4483;48.622;9.230;2023-02-22T10:40:48;6.60;;;4.83;;
8893;SDS011;4483;48.622;9.230;2023-02-22T10:43:19;6.33;;;5.23;;
8893;SDS011;4483;48.622;9.230;2023-02-22T10:45:47;7.90;;;4.43;;
8893;SDS011;4483;48.622;9.230;2023-02-22T10:48:20;7.43;;;4.87;;
8893;SDS011;4483;48.622;9.230;2023-02-22T10:50:48;8.07;;;4.97;;
8893;SDS011;4483;48.622;9.230;2023-02-22T10:53:16;7.23;;;5.03;;
8893;SDS011;4483;48.622;9.230;2023-02-22T10:58:41;6.80;;;4.93;;
8893;SDS011;4483;48.622;9.230;2023-02-22T11:01:21;6.33;;;4.50;;
8893;SDS011;4483;48.622;9.230;2023-02-22T11:03:55;8.73;;;4.83;;
8893;SDS011;4483;48.622;9.230;2023-02-22T11:06:24;7.27;;;5.20;;
8893;SDS011;4483;48.622;9.230;2023-02-22T11:08:54;9.37;;;5.40;;
8893;SDS011;4483;48.622;9.230;2023-02-22T11:11:30;5.97;;;5.33;;
8893;SDS011;4483;48.622;9.230;2023-02-22T11:13:58;7.47;;;5.93;;
8893;SDS011;4483;48.622;9.230;2023-02-22T11:16:27;8.47;;;5.77;;
8893;SDS011;4483;48.622;9.230;2023-02-22T11:19:01;7.53;;;5.43;;
8893;SDS011;4483;48.622;9.230;2023-02-22T11:21:32;11.83;;;5.10;;
8893;SDS011;4483;48.622;9.230;2023-02-22T11:24:04;9.20;;;5.10;;
8893;SDS011;4483;48.622;9.230;2023-02-22T11:26:39;7.80;;;5.33;;
8893;SDS011;4483;48.622;9.230;2023-02-22T11:29:11;8.77;;;5.72;;
8893;SDS011;4483;48.622;9.230;2023-02-22T11:31:44;10.23;;;6.03;;
8893;SDS011;4483;48.622;9.230;2023-02-22T11:34:24;6.73;;;5.63;;
8893;SDS011;4483;48.622;9.230;2023-02-22T11:36:58;7.93;;;6.18;;
8893;SDS011;4483;48.622;9.230;2023-02-22T11:39:42;6.73;;;5.60;;
8893;SDS011;4483;48.622;9.230;2023-02-22T11:42:19;7.18;;;5.45;;
8893;SDS011;4483;48.622;9.230;2023-02-22T11:44:47;7.37;;;5.93;;
8893;SDS011;4483;48.622;9.230;2023-02-22T11:47:14;6.13;;;5.20;;
8893;SDS011;4483;48.622;9.230;2023-02-22T11:49:42;12.68;;;5.20;;
8893;SDS011;4483;48.622;9.230;2023-02-22T11:52:15;16.52;;;5.65;;
8893;SDS011;4483;48.622;9.230;2023-02-22T11:54:59;7.60;;;5.60;;
8893;SDS011;4483;48.622;9.230;2023-02-22T11:57:38;11.00;;;5.65;;
8893;SDS011;4483;48.622;9.230;2023-02-22T12:00:14;6.60;;;4.88;;
8893;SDS011;4483;48.622;9.230;2023-02-22T12:02:56;7.47;;;5.43;;
8893;SDS011;4483;48.622;9.230;2023-02-22T12:05:43;6.50;;;5.00;;
8893;SDS011;4483;48.622;9.230;2023-02-22T12:08:25;7.82;;;5.18;;
8893;SDS011;4483;48.622;9.230;2023-02-22T12:11:04;7.80;;;5.00;;
8893;SDS011;4483;48.622;9.230;2023-02-22T12:13:45;6.18;;;5.10;;
8893;SDS011;4483;48.622;9.230;2023-02-22T12:16:23;12.02;;;5.35;;
8893;SDS011;4483;48.622;9.230;2023-02-22T12:19:09;9.57;;;5.45;;
8893;SDS011;4483;48.622;9.230;2023-02-22T12:21:43;9.50;;;5.68;;
8893;SDS011;4483;48.622;9.230;2023-02-22T12:24:17;9.70;;;5.95;;
8893;SDS011;4483;48.622;9.230;2023-02-22T12:26:49;8.30;;;5.68;;
8893;SDS011;4483;48.622;9.230;2023-02-22T12:29:21;7.65;;;5.65;;
8893;SDS011;4483;48.622;9.230;2023-02-22T12:31:54;11.10;;;5.50;;
8893;SDS011;4483;48.622;9.230;2023-02-22T12:34:27;7.83;;;5.83;;
8893;SDS011;4483;48.622;9.230;2023-02-22T12:37:00;7.10;;;5.57;;
8893;SDS011;4483;48.622;9.230;2023-02-22T12:39:36;8.18;;;5.82;;
8893;SDS011;4483;48.622;9.230;2023-02-22T12:42:12;6.90;;;5.60;;
8893;SDS011;4483;48.622;9.230;2023-02-22T12:44:42;10.02;;;5.35;;
8893;SDS011;4483;48.622;9.230;2023-02-22T12:47:14;6.95;;;5.15;;
8893;SDS011;4483;48.622;9.230;2023-02-22T12:49:46;9.27;;;5.68;;
8893;SDS011;4483;48.622;9.230;2023-02-22T12:52:20;9.80;;;5.60;;
8893;SDS011;4483;48.622;9.230;2023-02-22T12:55:00;6.93;;;4.72;;
8893;SDS011;4483;48.622;9.230;2023-02-22T12:57:37;9.53;;;5.40;;
8893;SDS011;4483;48.622;9.230;2023-02-22T13:00:10;10.95;;;5.55;;
8893;SDS011;4483;48.622;9.230;2023-02-22T13:02:44;10.07;;;5.35;;
8893;SDS011;4483;48.622;9.230;2023-02-22T13:05:17;9.63;;;5.67;;
8893;SDS011;4483;48.622;9.230;2023-02-22T13:07:46;11.02;;;5.47;;
8893;SDS011;4483;48.622;9.230;2023-02-22T13:10:33;6.40;;;5.65;;
8893;SDS011;4483;48.622;9.230;2023-02-22T13:13:15;7.18;;;5.47;;
8893;SDS011;4483;48.622;9.230;2023-02-22T13:15:49;8.98;;;5.68;;
8893;SDS011;4483;48.622;9.230;2023-02-22T13:18:24;11.95;;;6.88;;
8893;SDS011;4483;48.622;9.230;2023-02-22T13:20:57;7.68;;;6.07;;
8893;SDS011;4483;48.622;9.230;2023-02-22T13:23:30;9.32;;;6.28;;
8893;SDS011;4483;48.622;9.230;2023-02-22T13:26:05;10.23;;;6.00;;
8893;SDS011;4483;48.622;9.230;2023-02-22T13:28:42;9.45;;;6.20;;
8893;SDS011;4483;48.622;9.230;2023-02-22T13:31:16;9.60;;;5.90;;
8893;SDS011;4483;48.622;9.230;2023-02-22T13:33:57;9.15;;;6.03;;
8893;SDS011;4483;48.622;9.230;2023-02-22T13:36:43;9.50;;;6.43;;
8893;SDS011;4483;48.622;9.230;2023-02-22T13:39:38;9.93;;;6.43;;
8893;SDS011;4483;48.622;9.230;2023-02-22T13:42:33;9.00;;;6.43;;
8893;SDS011;4483;48.622;9.230;2023-02-22T13:45:25;7.30;;;6.53;;
8893;SDS011;4483;48.622;9.230;2023-02-22T13:48:16;8.45;;;7.05;;
8893;SDS011;4483;48.622;9.230;2023-02-22T13:51:05;7.88;;;6.70;;
8893;SDS011;4483;48.622;9.230;2023-02-22T13:53:40;11.65;;;7.28;;
8893;SDS011;4483;48.622;9.230;2023-02-22T13:56:14;10.88;;;6.38;;
8893;SDS011;4483;48.622;9.230;2023-02-22T13:58:51;7.88;;;6.40;;
8893;SDS011;4483;48.622;9.230;2023-02-22T14:01:36;8.40;;;7.57;;
8893;SDS011;4483;48.622;9.230;2023-02-22T14:04:19;10.52;;;6.90;;
8893;SDS011;4483;48.622;9.230;2023-02-22T14:06:48;11.57;;;6.88;;
8893;SDS011;4483;48.622;9.230;2023-02-22T14:09:15;10.35;;;7.18;;
8893;SDS011;4483;48.622;9.230;2023-02-22T14:12:03;11.88;;;7.32;;
8893;SDS011;4483;48.622;9.230;2023-02-22T14:14:30;11.00;;;6.57;;
8893;SDS011;4483;48.622;9.230;2023-02-22T14:20:16;8.48;;;6.80;;
8893;SDS011;4483;48.622;9.230;2023-02-22T14:22:55;11.38;;;6.95;;
8893;SDS011;4483;48.622;9.230;2023-02-22T14:25:36;9.38;;;6.57;;
8893;SDS011;4483;48.622;9.230;2023-02-22T14:28:06;10.25;;;6.85;;
8893;SDS011;4483;48.622;9.230;2023-02-22T14:30:35;12.27;;;6.57;;
8893;SDS011;4483;48.622;9.230;2023-02-22T14:33:13;7.45;;;6.28;;
8893;SDS011;4483;48.622;9.230;2023-02-22T14:36:18;7.88;;;6.25;;
8893;SDS011;4483;48.622;9.230;2023-02-22T14:38:47;8.57;;;5.95;;
8893;SDS011;4483;48.622;9.230;2023-02-22T14:41:18;9.00;;;6.20;;
8893;SDS011;4483;48.622;9.230;2023-02-22T14:43:50;7.78;;;6.35;;
8893;SDS011;4483;48.622;9.230;2023-02-22T14:46:20;7.25;;;6.55;;
8893;SDS011;4483;48.622;9.230;2023-02-22T14:48:50;7.70;;;6.78;;
8893;SDS011;4483;48.622;9.230;2023-02-22T14:51:26;7.22;;;6.15;;
8893;SDS011;4483;48.622;9.230;2023-02-22T14:53:59;9.75;;;7.07;;
8893;SDS011;4483;48.622;9.230;2023-02-22T14:56:29;11.02;;;6.40;;
8893;SDS011;4483;48.622;9.230;2023-02-22T14:59:07;11.25;;;6.70;;
8893;SDS011;4483;48.622;9.230;2023-02-22T15:01:40;10.63;;;6.95;;
8893;SDS011;4483;48.622;9.230;2023-02-22T15:04:17;10.77;;;6.72;;
8893;SDS011;4483;48.622;9.230;2023-02-22T15:06:47;10.55;;;6.55;;
8893;SDS011;4483;48.622;9.230;2023-02-22T15:09:15;9.20;;;6.27;;
8893;SDS011;4483;48.622;9.230;2023-02-22T15:11:48;8.93;;;6.75;;
8893;SDS011;4483;48.622;9.230;2023-02-22T15:14:18;10.98;;;6.90;;
8893;SDS011;4483;48.622;9.230;2023-02-22T15:16:48;9.27;;;7.18;;
8893;SDS011;4483;48.622;9.230;2023-02-22T15:19:19;8.65;;;6.22;;
8893;SDS011;4483;48.622;9.230;2023-02-22T15:21:52;7.03;;;5.93;;
8893;SDS011;4483;48.622;9.230;2023-02-22T15:24:21;11.10;;;6.60;;
8893;SDS011;4483;48.622;9.230;2023-02-22T15:26:50;12.20;;;7.03;;
8893;SDS011;4483;48.622;9.230;2023-02-22T15:29:18;10.18;;;6.75;;
8893;SDS011;4483;48.622;9.230;2023-02-22T15:31:47;10.98;;;6.43;;
8893;SDS011;4483;48.622;9.230;2023-02-22T15:34:16;9.20;;;6.10;;
8893;SDS011;4483;48.622;9.230;2023-02-22T15:36:48;8.32;;;6.50;;
8893;SDS011;4483;48.622;9.230;2023-02-22T15:39:21;9.97;;;6.37;;
8893;SDS011;4483;48.622;9.230;2023-02-22T15:42:04;11.33;;;7.23;;
8893;SDS011;4483;48.622;9.230;2023-02-22T15:44:36;10.13;;;6.53;;
8893;SDS011;4483;48.622;9.230;2023-02-22T15:47:04;15.23;;;7.07;;
8893;SDS011;4483;48.622;9.230;2023-02-22T15:49:32;11.30;;;6.90;;
8893;SDS011;4483;48.622;9.230;2023-02-22T15:52:06;13.03;;;7.03;;
8893;SDS011;4483;48.622;9.230;2023-02-22T15:54:43;8.40;;;6.27;;